Auburn, IN (46706)

3:16 PM EDT on August 30, 2016 (GMT -0400)
East Memorial Park | | Change Station

Elev 866 ft 41.36 °N, 85.06 °W | Updated 30 seconds ago

Scattered Clouds
Scattered Clouds
85.9 °F
Feels Like 92 °F
N
0.0
Wind Variable Wind from WSW
Gusts 4.0 mph

Today
High -- | Low -- °F
--% Chance of Precip.
Yesterday
High -- | Low -- °F
Precip. -- in
Pressure 30.12 in
Visibility 10.0 miles
Clouds Scattered Clouds 4100 ft
Heat Index 92 °F
Dew Point 72 °F
Humidity 64%
Rainfall 0.00 in
Snow Depth Not available.
7:04 AM 8:15 PM
Waning Crescent, 3% visible
METAR KGWB 301855Z AUTO 00000KT 10SM SCT041 29/19 A3012 RMK AO2
Pressure 30.12 in
Visibility 10.0 miles
Clouds Scattered Clouds 4100 ft
Heat Index 92 °F
Dew Point 72 °F
Humidity 64%
Rainfall 0.00 in
Snow Depth Not available.
7:04 AM 8:15 PM
Waning Crescent, 3% visible
METAR KGWB 301855Z AUTO 00000KT 10SM SCT041 29/19 A3012 RMK AO2

10-Day Weather Forecast

Almanac

Astronomy

Aug. 30, 2016 Rise Set
Actual Time
Civil Twilight
Nautical Twilight
Astronomical Twilight
Moon
Length of Visible Light
Length of Day
Tomorrow will be .
, % of the Moon is Illuminated

Today's Extremes

State Highs State Lows

Community

WunderPhotos

Upload Photos

1,935,882 photos uploaded!

WunderBlog® & News

Nearby

Air Quality

  Air Quality AQ Index Pollutant
Not available.

Snow Depth

Station Depth Elevation

Earthquake Activity

City Distance Mag. Time & Date
Minimum magnitude displayed is 2.5.

Coastal Water Temperatures

Place Temperature

Stations

Nearby Weather Stations

Station Location Temp. Windchill Dew Point Humidity Wind Precip. Elev Updated Type
                   

Watches & Warnings

There are currently no watches in effect.